createdAt,value
2019-05-11T00:02:27.424Z,89.09
2019-05-11T00:04:55.927Z,89.08
2019-05-11T00:07:24.446Z,89.02
2019-05-11T00:09:57.979Z,89.12
2019-05-11T00:12:23.183Z,89.23
2019-05-11T00:14:51.592Z,89.23
2019-05-11T00:17:20.153Z,89.36
2019-05-11T00:19:48.580Z,89.27
2019-05-11T00:22:17.162Z,89.32
2019-05-11T00:24:45.575Z,89.44
2019-05-11T00:27:15.575Z,89.57
2019-05-11T00:29:44.491Z,89.67
2019-05-11T00:32:15.657Z,89.67
2019-05-11T00:34:44.101Z,89.73
2019-05-11T00:37:12.526Z,89.75
2019-05-11T00:39:41.714Z,89.83
2019-05-11T00:42:10.176Z,89.87
2019-05-11T00:44:38.694Z,89.90
2019-05-11T00:47:07.119Z,89.96
2019-05-11T00:49:35.606Z,89.99
2019-05-11T00:52:04.523Z,90.01
2019-05-11T00:54:32.959Z,90.01
2019-05-11T00:57:02.905Z,90.04
2019-05-11T00:59:33.591Z,90.10
2019-05-11T01:02:01.480Z,90.16
2019-05-11T01:04:30.155Z,90.20
2019-05-11T01:06:58.732Z,90.15
2019-05-11T01:09:27.189Z,90.04
2019-05-11T01:11:55.706Z,89.96
2019-05-11T01:14:24.142Z,89.79
2019-05-11T01:16:52.557Z,89.77
2019-05-11T01:19:20.979Z,89.76
2019-05-11T01:21:49.387Z,89.94
2019-05-11T01:24:17.837Z,90.08
2019-05-11T01:26:46.235Z,90.17
2019-05-11T01:29:14.654Z,90.25
2019-05-11T01:31:43.075Z,90.30
2019-05-11T01:34:11.494Z,90.39
2019-05-11T01:36:39.951Z,90.42
2019-05-11T01:39:08.772Z,90.45
2019-05-11T01:41:37.373Z,90.49
2019-05-11T01:44:05.907Z,90.49
2019-05-11T01:46:34.756Z,90.54
2019-05-11T01:49:04.214Z,90.59
2019-05-11T01:51:32.660Z,90.57
2019-05-11T01:54:01.182Z,90.57
2019-05-11T01:56:29.594Z,90.59
2019-05-11T01:58:57.988Z,90.58
2019-05-11T02:01:26.433Z,90.68
2019-05-11T02:03:54.849Z,90.77
2019-05-11T02:06:24.823Z,90.77
2019-05-11T02:08:54.753Z,90.80
2019-05-11T02:11:23.286Z,90.80
2019-05-11T02:13:51.775Z,90.88
2019-05-11T02:16:20.242Z,90.97
2019-05-11T02:18:48.637Z,90.96
2019-05-11T02:21:17.049Z,90.99
2019-05-11T02:23:45.461Z,91.01
2019-05-11T02:26:13.872Z,91.08
2019-05-11T02:28:42.292Z,91.08
2019-05-11T02:31:10.716Z,91.07
2019-05-11T02:33:39.120Z,91.08
2019-05-11T02:36:07.593Z,91.11
2019-05-11T02:38:36.428Z,91.13
2019-05-11T02:41:05.009Z,91.12
2019-05-11T02:43:35.721Z,91.18
2019-05-11T02:46:05.957Z,91.15
2019-05-11T02:48:35.889Z,91.13
2019-05-11T02:51:04.424Z,91.16
2019-05-11T02:53:35.930Z,91.15
2019-05-11T02:56:04.380Z,91.15
2019-05-11T02:58:32.809Z,91.17
2019-05-11T03:01:01.316Z,91.23
2019-05-11T03:03:29.805Z,91.25
2019-05-11T03:05:58.237Z,91.28
2019-05-11T03:08:26.652Z,91.34
2019-05-11T03:10:55.229Z,91.35
2019-05-11T03:13:23.754Z,91.40
2019-05-11T03:15:52.236Z,91.41
2019-05-11T03:18:20.672Z,91.44
2019-05-11T03:20:49.096Z,91.49
2019-05-11T03:23:17.539Z,91.54
2019-05-11T03:25:45.963Z,91.58
2019-05-11T03:28:14.428Z,91.59
2019-05-11T03:30:42.839Z,91.62
2019-05-11T03:33:11.272Z,91.67
2019-05-11T03:35:39.687Z,91.64
2019-05-11T03:38:08.144Z,91.67
2019-05-11T03:40:36.523Z,91.70
2019-05-11T03:43:06.694Z,91.75
2019-05-11T03:45:35.176Z,91.76
2019-05-11T03:48:04.378Z,91.76
2019-05-11T03:50:32.817Z,91.75
2019-05-11T03:53:01.429Z,91.86
2019-05-11T03:55:29.867Z,91.84
2019-05-11T03:57:58.274Z,91.90
2019-05-11T04:00:26.753Z,91.89
2019-05-11T04:02:55.200Z,91.88
2019-05-11T04:05:23.581Z,91.86
2019-05-11T04:07:53.586Z,91.89
2019-05-11T04:10:25.149Z,91.90
2019-05-11T04:12:52.171Z,91.90
2019-05-11T04:15:20.643Z,91.95
2019-05-11T04:17:50.890Z,91.96
2019-05-11T04:20:22.344Z,91.98
2019-05-11T04:22:50.778Z,91.97
2019-05-11T04:25:19.219Z,92.03
2019-05-11T04:27:47.672Z,92.01
2019-05-11T04:30:16.218Z,92.04
2019-05-11T04:32:47.268Z,92.03
2019-05-11T04:35:15.655Z,92.02
2019-05-11T04:37:45.654Z,92.08
2019-05-11T04:40:14.330Z,92.07
2019-05-11T04:42:55.379Z,92.12
2019-05-11T04:45:15.605Z,92.13
2019-05-11T04:47:44.037Z,92.12
2019-05-11T04:50:13.023Z,92.14
2019-05-11T04:52:41.615Z,92.16
2019-05-11T04:55:10.176Z,92.16
2019-05-11T04:57:38.580Z,92.18
2019-05-11T05:00:09.719Z,92.19
2019-05-11T05:02:38.161Z,92.18
2019-05-11T05:05:07.085Z,92.20
2019-05-11T05:07:35.496Z,92.20
2019-05-11T05:10:05.579Z,92.22
2019-05-11T05:12:34.001Z,92.15
2019-05-11T05:15:03.964Z,92.14
2019-05-11T05:17:32.407Z,92.15
2019-05-11T05:20:01.200Z,92.12
2019-05-11T05:22:29.570Z,92.05
2019-05-11T05:24:58.081Z,92.01
2019-05-11T05:27:26.474Z,91.92
2019-05-11T05:29:55.002Z,91.84
2019-05-11T05:32:23.429Z,91.75
2019-05-11T05:34:52.065Z,91.62
2019-05-11T05:37:20.500Z,91.47
2019-05-11T05:39:48.933Z,91.18
2019-05-11T05:42:17.358Z,91.01
2019-05-11T05:44:47.322Z,90.80
2019-05-11T05:47:18.917Z,90.70
2019-05-11T05:49:47.382Z,90.35
2019-05-11T05:52:17.568Z,90.13
2019-05-11T05:54:45.974Z,90.06
2019-05-11T05:57:14.464Z,90.12
2019-05-11T05:59:42.854Z,90.13
2019-05-11T06:02:12.398Z,90.14
2019-05-11T06:04:40.731Z,90.03
2019-05-11T06:07:09.281Z,89.99
2019-05-11T06:09:37.704Z,89.77
2019-05-11T06:12:06.373Z,89.59
2019-05-11T06:14:36.278Z,89.48
2019-05-11T06:17:04.688Z,89.37
2019-05-11T06:19:33.171Z,89.25
2019-05-11T06:22:04.061Z,89.20
2019-05-11T06:24:33.977Z,89.27
2019-05-11T06:27:02.419Z,89.18
2019-05-11T06:29:30.896Z,88.81
2019-05-11T06:31:59.289Z,88.45
2019-05-11T06:34:27.783Z,88.54
2019-05-11T06:36:56.376Z,88.44
2019-05-11T06:39:24.752Z,88.28
2019-05-11T06:41:54.591Z,88.10
2019-05-11T06:44:23.101Z,87.55
2019-05-11T06:46:53.395Z,86.72
2019-05-11T06:49:21.799Z,86.27
2019-05-11T06:51:50.307Z,85.66
2019-05-11T06:54:18.696Z,85.74
2019-05-11T06:56:47.113Z,86.12
2019-05-11T06:59:15.550Z,86.34
2019-05-11T07:01:43.950Z,86.28
2019-05-11T07:04:12.534Z,86.50
2019-05-11T07:06:40.960Z,86.24
2019-05-11T07:09:10.940Z,85.67
2019-05-11T07:11:39.564Z,83.74
2019-05-11T07:14:19.979Z,82.57
2019-05-11T07:16:38.171Z,81.41
2019-05-11T07:19:06.687Z,82.20
2019-05-11T07:21:35.295Z,81.61
2019-05-11T07:24:04.427Z,81.09
2019-05-11T07:26:32.979Z,80.57
2019-05-11T07:29:01.408Z,79.57
2019-05-11T07:31:29.861Z,78.08
2019-05-11T07:33:58.818Z,78.97
2019-05-11T07:36:30.034Z,79.50
2019-05-11T07:38:58.531Z,81.36
2019-05-11T07:41:28.165Z,82.54
2019-05-11T07:43:58.951Z,83.65
2019-05-11T07:46:28.944Z,83.99
2019-05-11T07:48:59.104Z,84.34
2019-05-11T07:51:28.834Z,84.01
2019-05-11T07:53:57.987Z,83.44
2019-05-11T07:56:28.492Z,82.50
2019-05-11T07:58:59.384Z,82.08
2019-05-11T08:01:28.313Z,80.68
2019-05-11T08:03:58.596Z,81.20
2019-05-11T08:06:28.565Z,81.89
2019-05-11T08:08:58.845Z,81.68
2019-05-11T08:11:31.242Z,81.18
2019-05-11T08:13:58.570Z,81.99
2019-05-11T08:16:28.588Z,82.46
2019-05-11T08:18:58.943Z,82.99
2019-05-11T08:21:28.385Z,83.14
2019-05-11T08:23:58.687Z,83.80
2019-05-11T08:26:28.271Z,84.36
2019-05-11T08:28:57.903Z,83.95
2019-05-11T08:31:27.878Z,83.38
2019-05-11T08:33:58.371Z,83.82
2019-05-11T08:36:29.077Z,83.45
2019-05-11T08:38:58.716Z,83.20
2019-05-11T08:41:28.082Z,81.48
2019-05-11T08:43:58.709Z,82.82
2019-05-11T08:46:27.951Z,82.50
2019-05-11T08:48:59.324Z,78.58
2019-05-11T08:51:27.964Z,73.12
2019-05-11T08:53:58.492Z,73.53
2019-05-11T08:56:28.863Z,70.11
2019-05-11T08:58:58.763Z,72.05
2019-05-11T09:01:28.685Z,71.68
2019-05-11T09:03:58.333Z,69.57
2019-05-11T09:06:28.386Z,73.04
2019-05-11T09:08:58.299Z,71.27
2019-05-11T09:11:28.347Z,70.42
2019-05-11T09:13:57.929Z,69.66
2019-05-11T09:16:28.851Z,69.41
2019-05-11T09:18:58.112Z,66.75
2019-05-11T09:21:28.165Z,66.93
2019-05-11T09:23:57.826Z,64.36
2019-05-11T09:26:28.652Z,62.39
2019-05-11T09:28:58.184Z,63.75
2019-05-11T09:31:27.984Z,64.11
2019-05-11T09:33:58.547Z,62.42
2019-05-11T09:36:28.571Z,66.55
2019-05-11T09:38:58.166Z,63.19
2019-05-11T09:41:28.965Z,62.59
2019-05-11T09:43:58.646Z,62.17
2019-05-11T09:46:27.921Z,64.04
2019-05-11T09:48:58.789Z,63.95
2019-05-11T09:51:28.748Z,60.98
2019-05-11T09:53:58.786Z,63.97
2019-05-11T09:56:28.788Z,62.06
2019-05-11T09:58:58.160Z,59.16
2019-05-11T10:01:26.828Z,59.26
2019-05-11T10:03:55.303Z,58.31
2019-05-11T10:06:23.726Z,60.92
2019-05-11T10:08:52.230Z,62.29
2019-05-11T10:11:20.661Z,61.58
2019-05-11T10:13:49.189Z,61.25
2019-05-11T10:16:18.075Z,62.86
2019-05-11T10:18:49.135Z,61.37
2019-05-11T10:21:18.846Z,61.35
2019-05-11T10:23:48.862Z,56.74
2019-05-11T10:26:18.630Z,56.92
2019-05-11T10:28:48.295Z,56.45
2019-05-11T10:31:17.996Z,57.26
2019-05-11T10:33:49.024Z,57.31
2019-05-11T10:36:19.089Z,58.95
2019-05-11T10:38:48.768Z,60.43
2019-05-11T10:41:19.239Z,59.62
2019-05-11T10:43:49.364Z,58.62
2019-05-11T10:46:23.047Z,57.33
2019-05-11T10:48:48.494Z,57.25
2019-05-11T10:51:19.448Z,57.22
2019-05-11T10:53:51.271Z,55.76
2019-05-11T10:56:20.109Z,56.46
2019-05-11T10:58:48.803Z,56.06
2019-05-11T11:01:18.157Z,57.08
2019-05-11T11:03:48.839Z,54.70
2019-05-11T11:06:18.772Z,52.95
2019-05-11T11:08:48.731Z,51.21
2019-05-11T11:11:18.606Z,53.90
2019-05-11T11:13:48.048Z,53.92
2019-05-11T11:16:32.750Z,54.35
2019-05-11T11:18:48.681Z,56.50
2019-05-11T11:21:22.648Z,58.79
2019-05-11T11:23:48.965Z,59.67
2019-05-11T11:26:18.437Z,56.52
2019-05-11T11:28:47.816Z,54.78
2019-05-11T11:31:18.836Z,52.79
2019-05-11T11:33:48.920Z,49.95
2019-05-11T11:36:20.323Z,46.56
2019-05-11T11:38:48.710Z,50.98
2019-05-11T11:41:18.661Z,53.59
2019-05-11T11:43:48.914Z,61.65
2019-05-11T11:46:18.839Z,65.77
2019-05-11T11:48:48.950Z,69.24
2019-05-11T11:51:18.738Z,72.41
2019-05-11T11:53:47.995Z,73.46
2019-05-11T11:56:18.950Z,67.94
2019-05-11T11:58:48.846Z,67.10
2019-05-11T12:01:19.005Z,70.64
2019-05-11T12:03:48.841Z,67.76
2019-05-11T12:06:19.531Z,67.57
2019-05-11T12:08:49.781Z,66.61
2019-05-11T12:11:18.949Z,64.48
2019-05-11T12:13:47.907Z,64.48
2019-05-11T12:16:18.341Z,63.87
2019-05-11T12:18:49.461Z,60.24
2019-05-11T12:21:19.351Z,63.64
2019-05-11T12:23:48.521Z,62.23
2019-05-11T12:26:17.840Z,56.78
2019-05-11T12:28:48.782Z,58.05
2019-05-11T12:31:18.396Z,60.13
2019-05-11T12:33:48.291Z,61.79
2019-05-11T12:36:19.884Z,61.79
2019-05-11T12:38:48.987Z,62.06
2019-05-11T12:41:18.993Z,64.21
2019-05-11T12:43:48.833Z,64.34
2019-05-11T12:46:18.954Z,64.81
2019-05-11T12:48:48.497Z,64.99
2019-05-11T12:51:18.591Z,66.72
2019-05-11T12:53:48.934Z,69.48
2019-05-11T12:56:18.993Z,74.59
2019-05-11T12:58:49.191Z,78.03
2019-05-11T13:01:18.809Z,80.48
2019-05-11T13:03:49.512Z,78.66
2019-05-11T13:06:19.032Z,79.88
2019-05-11T13:08:48.383Z,80.82
2019-05-11T13:11:18.646Z,82.10
2019-05-11T13:13:48.455Z,82.19
2019-05-11T13:16:18.822Z,81.80
2019-05-11T13:18:48.955Z,81.53
2019-05-11T13:21:20.334Z,81.55
2019-05-11T13:23:49.065Z,78.53
2019-05-11T13:26:18.036Z,79.22
2019-05-11T13:28:48.623Z,79.06
2019-05-11T13:31:18.951Z,78.17
2019-05-11T13:33:48.143Z,79.76
2019-05-11T13:36:18.646Z,79.52
2019-05-11T13:38:48.264Z,79.05
2019-05-11T13:41:19.119Z,77.75
2019-05-11T13:43:49.101Z,77.21
2019-05-11T13:46:18.174Z,74.96
2019-05-11T13:48:48.411Z,75.89
2019-05-11T13:51:18.232Z,75.68
2019-05-11T13:53:48.485Z,74.68
2019-05-11T13:56:18.296Z,74.55
2019-05-11T13:58:48.736Z,75.50
2019-05-11T14:01:20.546Z,75.07
2019-05-11T14:03:49.147Z,76.52
2019-05-11T14:06:18.679Z,76.76
2019-05-11T14:08:48.344Z,77.32
2019-05-11T14:11:18.253Z,76.12
2019-05-11T14:13:47.993Z,76.09
2019-05-11T14:16:18.838Z,75.89
2019-05-11T14:18:49.035Z,75.46
2019-05-11T14:21:18.506Z,75.53
2019-05-11T14:23:48.373Z,75.62
2019-05-11T14:26:19.259Z,73.57
2019-05-11T14:28:48.039Z,74.54
2019-05-11T14:31:18.901Z,73.71
2019-05-11T14:33:48.890Z,72.43
2019-05-11T14:36:18.491Z,72.25
2019-05-11T14:38:54.108Z,72.84
2019-05-11T14:41:22.743Z,73.33
2019-05-11T14:43:51.369Z,73.94
2019-05-11T14:46:19.842Z,74.60
2019-05-11T14:48:48.344Z,74.67
2019-05-11T14:51:17.982Z,74.31
2019-05-11T14:53:48.101Z,73.81
2019-05-11T14:56:19.061Z,73.17
2019-05-11T14:58:49.215Z,72.91
2019-05-11T15:01:18.377Z,72.65
2019-05-11T15:03:48.589Z,71.75
2019-05-11T15:06:18.787Z,72.12
2019-05-11T15:08:47.893Z,70.50
2019-05-11T15:11:19.132Z,70.38
2019-05-11T15:13:51.362Z,71.14
2019-05-11T15:16:19.767Z,68.48
2019-05-11T15:18:48.625Z,68.83
2019-05-11T15:21:18.918Z,68.14
2019-05-11T15:23:47.822Z,68.41
2019-05-11T15:26:18.679Z,69.09
2019-05-11T15:28:48.642Z,68.98
2019-05-11T15:31:21.907Z,69.59
2019-05-11T15:33:48.907Z,70.07
2019-05-11T15:36:19.304Z,70.74
2019-05-11T15:38:48.274Z,69.08
2019-05-11T15:41:17.693Z,68.84
2019-05-11T15:43:48.193Z,68.54
2019-05-11T15:46:19.467Z,68.63
2019-05-11T15:48:58.567Z,68.38
2019-05-11T15:51:21.964Z,68.09
2019-05-11T15:53:51.918Z,67.81
2019-05-11T15:56:21.965Z,67.48
2019-05-11T15:58:50.532Z,67.69
2019-05-11T16:01:19.357Z,67.39
2019-05-11T16:03:49.994Z,67.09
2019-05-11T16:06:18.540Z,66.48
2019-05-11T16:08:47.549Z,66.05
2019-05-11T16:11:17.987Z,66.37
2019-05-11T16:13:48.355Z,65.81
2019-05-11T16:16:16.551Z,66.62
2019-05-11T16:18:45.239Z,66.01
2019-05-11T16:21:13.853Z,65.72
2019-05-11T16:23:45.102Z,64.63
2019-05-11T16:26:14.446Z,65.69
2019-05-11T16:28:43.093Z,64.72
2019-05-11T16:31:11.472Z,63.38
2019-05-11T16:33:39.910Z,63.81
2019-05-11T16:36:09.085Z,63.63
2019-05-11T16:38:38.147Z,65.31
2019-05-11T16:41:08.964Z,65.26
2019-05-11T16:43:38.545Z,64.81
2019-05-11T16:46:08.622Z,64.97
2019-05-11T16:48:39.688Z,66.64
2019-05-11T16:51:08.919Z,66.31
2019-05-11T16:53:39.213Z,66.66
2019-05-11T16:56:08.426Z,67.84
2019-05-11T16:58:40.600Z,68.66
2019-05-11T17:01:08.564Z,69.24
2019-05-11T17:03:38.441Z,69.76
2019-05-11T17:06:08.725Z,70.34
2019-05-11T17:08:38.310Z,70.85
2019-05-11T17:11:08.192Z,71.28
2019-05-11T17:13:37.926Z,72.49
2019-05-11T17:16:08.701Z,72.88
2019-05-11T17:18:37.461Z,73.25
2019-05-11T17:21:07.797Z,73.16
2019-05-11T17:23:40.137Z,73.57
2019-05-11T17:26:10.073Z,74.21
2019-05-11T17:28:38.679Z,74.23
2019-05-11T17:31:08.064Z,74.42
2019-05-11T17:33:38.456Z,74.25
2019-05-11T17:36:08.470Z,74.02
2019-05-11T17:38:38.946Z,72.99
2019-05-11T17:41:08.512Z,72.71
2019-05-11T17:43:39.496Z,72.53
2019-05-11T17:46:08.265Z,72.79
2019-05-11T17:48:38.817Z,72.20
2019-05-11T17:51:20.640Z,72.32
2019-05-11T17:53:38.276Z,72.49
2019-05-11T17:56:06.776Z,73.45
2019-05-11T17:58:37.848Z,73.56
2019-05-11T18:01:09.162Z,73.78
2019-05-11T18:03:38.427Z,73.94
2019-05-11T18:06:08.470Z,74.61
2019-05-11T18:08:37.000Z,75.65
2019-05-11T18:11:08.437Z,75.88
2019-05-11T18:13:38.952Z,77.06
2019-05-11T18:16:08.539Z,77.34
2019-05-11T18:18:37.786Z,78.76
2019-05-11T18:21:08.335Z,78.89
2019-05-11T18:23:39.039Z,79.12
2019-05-11T18:26:09.039Z,78.88
2019-05-11T18:28:37.925Z,79.04
2019-05-11T18:31:06.486Z,79.17
2019-05-11T18:33:34.901Z,79.28
2019-05-11T18:36:03.378Z,79.37
2019-05-11T18:38:32.003Z,79.25
2019-05-11T18:41:00.427Z,78.98
2019-05-11T18:43:28.841Z,78.75
2019-05-11T18:45:58.132Z,78.75
2019-05-11T18:48:29.622Z,78.71
2019-05-11T18:50:59.152Z,78.75
2019-05-11T18:53:28.904Z,78.35
2019-05-11T18:55:58.959Z,78.19
2019-05-11T18:58:27.837Z,78.41
2019-05-11T19:00:56.925Z,78.43
2019-05-11T19:03:25.369Z,78.77
2019-05-11T19:05:53.872Z,78.64
2019-05-11T19:08:22.323Z,78.87
2019-05-11T19:10:50.772Z,78.70
2019-05-11T19:13:19.418Z,78.65
2019-05-11T19:15:48.737Z,78.99
2019-05-11T19:18:17.826Z,78.44
2019-05-11T19:20:49.440Z,78.10
2019-05-11T19:23:19.673Z,77.74
2019-05-11T19:25:49.582Z,77.50
2019-05-11T19:28:18.651Z,77.53
2019-05-11T19:30:49.310Z,77.56
2019-05-11T19:33:19.078Z,78.13
2019-05-11T19:35:48.159Z,77.79
2019-05-11T19:38:18.972Z,77.77
2019-05-11T19:40:48.465Z,77.47
2019-05-11T19:43:18.628Z,77.04
2019-05-11T19:45:50.080Z,77.18
2019-05-11T19:48:18.504Z,77.32
2019-05-11T19:51:02.704Z,77.24
2019-05-11T19:53:18.771Z,77.43
2019-05-11T19:55:47.958Z,77.02
2019-05-11T19:58:19.106Z,76.78
2019-05-11T20:00:48.805Z,76.78
2019-05-11T20:03:18.253Z,76.70
2019-05-11T20:05:48.514Z,76.71
2019-05-11T20:08:18.444Z,76.96
2019-05-11T20:10:48.795Z,76.66
2019-05-11T20:13:17.922Z,76.61
2019-05-11T20:15:48.497Z,75.91
2019-05-11T20:18:18.390Z,75.30
2019-05-11T20:20:50.245Z,76.14
2019-05-11T20:23:18.647Z,75.30
2019-05-11T20:25:48.588Z,75.27
2019-05-11T20:28:18.317Z,75.68
2019-05-11T20:30:48.300Z,75.72
2019-05-11T20:33:18.928Z,75.19
2019-05-11T20:35:48.936Z,75.37
2019-05-11T20:38:19.183Z,75.79
2019-05-11T20:40:49.683Z,76.15
2019-05-11T20:43:23.298Z,75.96
2019-05-11T20:45:51.358Z,76.19
2019-05-11T20:48:19.778Z,76.00
2019-05-11T20:50:48.481Z,75.98
2019-05-11T20:53:18.058Z,75.94
2019-05-11T20:55:47.822Z,76.42
2019-05-11T20:58:18.947Z,75.62
2019-05-11T21:00:48.461Z,75.44
2019-05-11T21:03:16.854Z,75.38
2019-05-11T21:05:45.334Z,75.37
2019-05-11T21:08:13.854Z,75.99
2019-05-11T21:10:42.238Z,75.83
2019-05-11T21:13:10.748Z,75.91
2019-05-11T21:15:40.728Z,75.66
2019-05-11T21:18:09.221Z,75.66
2019-05-11T21:20:38.203Z,75.89
2019-05-11T21:23:08.236Z,75.65
2019-05-11T21:25:37.806Z,75.82
2019-05-11T21:28:08.555Z,75.60
2019-05-11T21:30:39.710Z,75.70
2019-05-11T21:33:08.630Z,76.50
2019-05-11T21:35:38.564Z,76.68
2019-05-11T21:38:07.340Z,76.61
2019-05-11T21:40:37.901Z,76.26
2019-05-11T21:43:08.773Z,76.53
2019-05-11T21:45:39.951Z,76.47
2019-05-11T21:48:09.271Z,76.56
2019-05-11T21:50:38.525Z,77.69
2019-05-11T21:53:08.118Z,76.90
2019-05-11T21:55:37.836Z,77.18
2019-05-11T21:58:08.893Z,77.08
2019-05-11T22:00:38.696Z,77.42
2019-05-11T22:03:09.967Z,77.77
2019-05-11T22:05:38.741Z,78.12
2019-05-11T22:08:08.690Z,78.34
2019-05-11T22:10:38.569Z,78.54
2019-05-11T22:13:07.211Z,78.50
2019-05-11T22:15:38.339Z,79.22
2019-05-11T22:18:07.994Z,79.25
2019-05-11T22:20:40.562Z,78.92
2019-05-11T22:23:08.422Z,79.20
2019-05-11T22:25:38.227Z,79.34
2019-05-11T22:28:08.433Z,79.55
2019-05-11T22:30:39.329Z,80.17
2019-05-11T22:33:08.816Z,80.46
2019-05-11T22:35:38.975Z,81.23
2019-05-11T22:38:08.635Z,81.64
2019-05-11T22:40:38.402Z,82.10
2019-05-11T22:43:09.307Z,82.34
2019-05-11T22:45:38.365Z,82.94
2019-05-11T22:48:07.893Z,83.23
2019-05-11T22:50:38.238Z,83.46
2019-05-11T22:53:08.657Z,83.57
2019-05-11T22:55:38.670Z,83.73
2019-05-11T22:58:08.443Z,84.08
2019-05-11T23:00:45.469Z,84.07
2019-05-11T23:03:15.478Z,84.18
2019-05-11T23:05:44.063Z,84.57
2019-05-11T23:08:12.509Z,84.86
2019-05-11T23:10:42.452Z,84.74
2019-05-11T23:13:11.666Z,84.44
2019-05-11T23:15:40.722Z,84.81
2019-05-11T23:18:09.052Z,84.85
2019-05-11T23:20:38.695Z,84.76
2019-05-11T23:23:09.177Z,84.78
2019-05-11T23:25:37.677Z,84.89
2019-05-11T23:28:06.046Z,84.89
2019-05-11T23:30:34.586Z,84.82
2019-05-11T23:33:03.254Z,84.78
2019-05-11T23:35:31.736Z,85.03
2019-05-11T23:38:00.172Z,85.22
2019-05-11T23:40:28.692Z,85.41
2019-05-11T23:42:57.878Z,85.61
2019-05-11T23:45:27.925Z,85.67
2019-05-11T23:47:58.812Z,85.83
2019-05-11T23:50:28.270Z,86.20
2019-05-11T23:53:05.968Z,86.45
2019-05-11T23:55:29.068Z,86.47
2019-05-11T23:57:57.739Z,86.61
